Lake Tapawingo, Missouri
Current Conditions -  °F | °C
As of 10:53 PM on Thursday 30 Oct 2014 (Local Time) from KLXT Reporting Station
Clear Clear  
Wind Chill: 54°   Ceiling: Unl
Heat Index: 54°   Visibility: 10mi
Dew Point: 41°   Wind: 15mph
Humidity: 62%   Direction: 330°NNW
Pressure: 30.17"   Gusts: 23mph
Location:  39.019°N, 94.3003°W
Report Text: KLXT 310353Z AUTO 33013G20KT 10SM CLR 12/05 A3017 RMK AO2 SLP216 T01220050
Loading
Personal Weather Stations






























Interactive Weather Map
Tropical Storm Tracking
New forecast layout! Learn more

10-Day Weather Forecast

Advertisements
Track Severe Weather on mobile